Stormwatcher's Retreat Logo




                  Temp     Hi    Low   Out    Dew  Wind  Wind   Wind    Hi    Hi   Wind   Heat    THW   THSW                Rain  Solar   Solar Hi Solar   UV    UV    Hi     Heat    Cool    In     In    In     In     In   In Air          Wind  Wind    ISS   Arc.
  Date    Time     Out   Temp   Temp   Hum    Pt. Speed   Dir    Run Speed   Dir  Chill  Index  Index  Index   Bar    Rain  Rate   Rad.  Energy    Rad.  Index  Dose   UV     D-D     D-D    Temp   Hum    Dew   Heat    EMC Density     ET   Samp   Tx   Recept  Int.
------------------------------------------------------------------------------------------------------------------------------------------------------------------------------------------------------------------------------------------------------------------------
10/02/22 12:10a   52.9   52.9   52.8    99   52.6  16.0     S   2.67  23.0     S   46.2   53.3   46.6   44.9  29.868  0.00  0.00     0     0.00      0     0.0  0.00   0.0   0.084   0.000   74.5    57   58.3   75.0  10.37  .0729    0.000   202    7    100.0   10 
10/02/22 12:20a   52.9   53.0   52.8    99   52.6  18.0     S   3.00  26.0     S   45.6   53.3   46.0   44.4  29.871  0.00  0.00     0     0.00      0     0.0  0.00   0.0   0.084   0.000   74.5    56   57.8   74.9  10.26  .0730    0.000   203    7    100.0   10 
10/02/22 12:30a   53.0   53.0   52.9    99   52.7  17.0     S   2.83  30.0     S   46.0   53.4   46.4   44.7  29.870  0.00  0.00     0     0.00      0     0.0  0.00   0.0   0.083   0.000   74.4    57   58.2   74.9  10.37  .0730    0.000   202    7    100.0   10 
10/02/22 12:40a   53.0   53.1   52.9    99   52.7  16.0     S   2.67  23.0     S   46.3   53.4   46.7   45.0  29.870  0.00  0.00     0     0.00      0     0.0  0.00   0.0   0.083   0.000   74.4    57   58.2   74.9  10.37  .0730    0.000   204    7    100.0   10 
10/02/22 12:50a   53.1   53.1   53.0    99   52.8  15.0     S   2.50  24.0   SSE   46.7   53.5   47.1   45.3  29.871  0.00  0.00     0     0.00      0     0.0  0.00   0.0   0.083   0.000   74.4    57   58.2   74.9  10.37  .0730    0.000   203    7    100.0   10 
10/02/22  1:00a   53.0   53.2   53.0    99   52.7  15.0     S   2.50  23.0   SSE   46.6   53.4   47.0   45.2  29.873  0.00  0.00     0     0.00      0     0.0  0.00   0.0   0.083   0.000   74.3    56   57.6   74.7  10.26  .0730    0.000   204    7    100.0   10 
10/02/22  1:10a   53.1   53.2   53.0    99   52.8  15.0     S   2.50  23.0   SSE   46.7   53.5   47.1   45.3  29.875  0.00  0.00     0     0.00      0     0.0  0.00   0.0   0.083   0.000   74.3    57   58.1   74.8  10.38  .0730    0.000   203    7    100.0   10 
10/02/22  1:20a   53.1   53.2   53.0    99   52.8  14.0     S   2.33  23.0     S   47.0   53.5   47.4   45.6  29.878  0.00  0.00     0     0.00      0     0.0  0.00   0.0   0.083   0.000   74.2    56   57.5   74.6  10.27  .0730    0.000   204    7    100.0   10 
10/02/22  1:30a   53.2   53.2   53.1    99   52.9  14.0     S   2.33  21.0   SSE   47.1   53.6   47.5   45.7  29.882  0.00  0.00     0     0.00      0     0.0  0.00   0.0   0.082   0.000   74.2    57   58.0   74.7  10.38  .0730    0.000   203    7    100.0   10 
10/02/22  1:40a   53.2   53.2   53.1    99   52.9  14.0     S   2.33  21.0     S   47.1   53.6   47.5   45.7  29.880  0.00  0.00     0     0.00      0     0.0  0.00   0.0   0.082   0.000   74.1    56   57.4   74.4  10.27  .0731    0.000   202    7    100.0   10 
10/02/22  1:50a   53.2   53.2   53.1    99   52.9  15.0     S   2.50  22.0     S   46.8   53.6   47.2   45.4  29.881  0.00  0.00     0     0.00      0     0.0  0.00   0.0   0.082   0.000   74.1    56   57.4   74.4  10.27  .0731    0.000   201    7    100.0   10 
10/02/22  2:00a   53.3   53.3   53.2    99   53.0  14.0     S   2.33  21.0     S   47.3   53.7   47.7   45.9  29.884  0.00  0.00     0     0.00      0     0.0  0.00   0.0   0.081   0.000   74.0    56   57.3   74.3  10.27  .0731    0.000   204    7    100.0   10 
10/02/22  2:10a   53.3   53.3   53.2   100   53.3  14.0     S   2.33  19.0   SSE   47.3   53.7   47.7   45.9  29.887  0.00  0.00     0     0.00      0     0.0  0.00   0.0   0.081   0.000   74.0    56   57.3   74.3  10.27  .0731    0.000   202    7    100.0   10 
10/02/22  2:20a   53.3   53.4   53.3    99   53.0  13.0     S   2.17  18.0     S   47.6   53.7   48.0   46.1  29.890  0.00  0.00     0     0.00      0     0.0  0.00   0.0   0.081   0.000   73.9    56   57.2   74.2  10.27  .0731    0.000   202    7    100.0   10 
10/02/22  2:30a   53.3   53.4   53.2    99   53.0  13.0     S   2.17  19.0   SSE   47.6   53.7   48.0   46.1  29.891  0.00  0.00     0     0.00      0     0.0  0.00   0.0   0.081   0.000   73.9    56   57.2   74.2  10.27  .0731    0.000   204    7    100.0   10 
10/02/22  2:40a   53.3   53.4   53.2    99   53.0  12.0     S   2.00  18.0   SSE   48.1   53.7   48.5   46.5  29.891  0.00  0.00     0     0.00      0     0.0  0.00   0.0   0.081   0.000   73.9    56   57.2   74.2  10.27  .0731    0.000   203    7    100.0   10 
10/02/22  2:50a   53.3   53.3   53.2   100   53.3  12.0     S   2.00  19.0   SSE   48.1   53.7   48.5   46.5  29.892  0.00  0.00     0     0.00      0     0.0  0.00   0.0   0.081   0.000   73.8    56   57.1   74.1  10.27  .0732    0.000   202    7    100.0   10 
10/02/22  3:00a   53.3   53.4   53.2   100   53.3  13.0     S   2.17  19.0     S   47.6   53.7   48.0   46.1  29.897  0.00  0.00     0     0.00      0     0.0  0.00   0.0   0.081   0.000   73.7    56   57.0   73.9  10.28  .0732    0.000   203    7    100.0   10 
10/02/22  3:10a   53.4   53.5   53.3   100   53.4  13.0     S   2.17  19.0   SSE   47.7   53.8   48.1   46.2  29.900  0.00  0.00     0     0.00      0     0.0  0.00   0.0   0.081   0.000   73.7    56   57.0   73.9  10.28  .0732    0.000   204    7    100.0   10 
10/02/22  3:20a   53.4   53.5   53.4   100   53.4  13.0     S   2.17  19.0     S   47.7   53.8   48.1   46.2  29.904  0.00  0.00     0     0.00      0     0.0  0.00   0.0   0.081   0.000   73.6    56   56.9   73.8  10.28  .0732    0.000   204    7    100.0   10 
10/02/22  3:30a   53.4   53.5   53.3   100   53.4  13.0     S   2.17  21.0   SSE   47.7   53.8   48.1   46.2  29.901  0.00  0.00     0     0.00      0     0.0  0.00   0.0   0.081   0.000   73.6    56   56.9   73.8  10.28  .0732    0.000   203    7    100.0   10 
10/02/22  3:40a   53.5   53.5   53.3   100   53.5  12.0     S   2.00  20.0     S   48.3   53.9   48.7   46.7  29.899  0.00  0.00     0     0.00      0     0.0  0.00   0.0   0.080   0.000   73.5    56   56.8   73.7  10.28  .0732    0.000   203    7    100.0   10 
10/02/22  3:50a   53.5   53.5   53.4   100   53.5  12.0     S   2.00  18.0   SSE   48.3   53.9   48.7   46.7  29.899  0.00  0.00     0     0.00      0     0.0  0.00   0.0   0.080   0.000   73.5    56   56.8   73.7  10.28  .0732    0.000   201    7    100.0   10 
10/02/22  4:00a   53.5   53.6   53.5   100   53.5  12.0     S   2.00  17.0    SE   48.3   53.9   48.7   46.7  29.900  0.00  0.00     0     0.00      0     0.0  0.00   0.0   0.080   0.000   73.5    56   56.8   73.7  10.28  .0732    0.000   204    7    100.0   10 
10/02/22  4:10a   53.6   53.6   53.5   100   53.6  13.0     S   2.17  21.0   SSE   48.0   54.0   48.4   46.5  29.900  0.00  0.00     0     0.00      0     0.0  0.00   0.0   0.079   0.000   73.4    56   56.7   73.6  10.28  .0732    0.000   204    7    100.0   10 
10/02/22  4:20a   53.6   53.7   53.5   100   53.6  10.0     S   1.67  16.0   SSW   49.5   54.0   49.9   47.8  29.902  0.00  0.00     0     0.00      0     0.0  0.00   0.0   0.079   0.000   73.4    56   56.7   73.6  10.28  .0732    0.000   202    7    100.0   10 
10/02/22  4:30a   53.6   53.8   53.6   100   53.6  11.0     S   1.83  17.0   SSE   48.9   54.0   49.3   47.3  29.902  0.00  0.00     0     0.00      0     0.0  0.00   0.0   0.079   0.000   73.3    56   56.7   73.4  10.28  .0733    0.000   204    7    100.0   10 
10/02/22  4:40a   53.7   53.7   53.6   100   53.7  10.0     S   1.67  17.0     S   49.6   54.1   50.0   47.9  29.905  0.00  0.00     0     0.00      0     0.0  0.00   0.0   0.078   0.000   73.3    56   56.7   73.4  10.28  .0733    0.000   203    7    100.0   10 
10/02/22  4:50a   53.7   53.8   53.6   100   53.7   9.0     S   1.50  14.0   SSE   50.2   54.1   50.6   48.4  29.908  0.00  0.00     0     0.00      0     0.0  0.00   0.0   0.078   0.000   73.2    55   56.1   73.2  10.09  .0733    0.000   204    7    100.0   10 
10/02/22  5:00a   53.7   53.8   53.6   100   53.7   8.0     S   1.33  17.0   SSE   50.9   54.1   51.3   49.0  29.911  0.00  0.00     0     0.00      0     0.0  0.00   0.0   0.078   0.000   73.1    56   56.5   73.2  10.29  .0733    0.000   204    7    100.0   10 
10/02/22  5:10a   53.8   53.8   53.7    99   53.5   8.0     S   1.33  14.0   SSE   51.1   54.2   51.5   49.2  29.916  0.00  0.00     0     0.00      0     0.0  0.00   0.0   0.078   0.000   73.1    55   56.0   73.1  10.09  .0734    0.000   205    7    100.0   10 
10/02/22  5:20a   53.9   53.9   53.7    99   53.6   6.0     S   1.00  14.0     S   52.3   54.3   52.7   50.3  29.920  0.00  0.00     0     0.00      0     0.0  0.00   0.0   0.077   0.000   73.1    56   56.5   73.2  10.29  .0733    0.000   203    7    100.0   10 
10/02/22  5:30a   53.8   53.9   53.8    99   53.5   6.0     S   1.00  14.0   SSE   52.2   54.2   52.6   50.2  29.918  0.00  0.00     0     0.00      0     0.0  0.00   0.0   0.078   0.000   73.0    56   56.4   73.1  10.29  .0734    0.000   204    7    100.0   10 
10/02/22  5:40a   53.8   53.9   53.8    99   53.5   7.0     S   1.17  10.0   SSE   51.8   54.2   52.2   49.8  29.922  0.00  0.00     0     0.00      0     0.0  0.00   0.0   0.078   0.000   73.0    56   56.4   73.1  10.29  .0734    0.000   202    7    100.0   10 
10/02/22  5:50a   53.8   53.8   53.8    99   53.5   6.0     S   1.00  12.0     S   52.2   54.2   52.6   50.2  29.921  0.00  0.00     0     0.00      0     0.0  0.00   0.0   0.078   0.000   73.0    56   56.4   73.1  10.29  .0734    0.000   202    7    100.0   10 
10/02/22  6:00a   53.8   53.8   53.7    99   53.5   6.0     S   1.00  12.0     S   52.2   54.2   52.6   50.2  29.922  0.00  0.00     0     0.00      0     0.0  0.00   0.0   0.078   0.000   73.0    56   56.4   73.1  10.29  .0734    0.000   203    7    100.0   10 
10/02/22  6:10a   54.0   54.0   53.8    99   53.7   5.0     S   0.83   9.0   SSW   52.9   54.4   53.3   50.9  29.926  0.00  0.00     0     0.00      0     0.0  0.00   0.0   0.076   0.000   72.9    56   56.3   72.9  10.29  .0734    0.000   202    7    100.0   10 
10/02/22  6:20a   54.1   54.1   54.0    99   53.8   5.0     S   0.83   9.0   SSE   53.0   54.5   53.4   51.0  29.932  0.00  0.00     0     0.00      0     0.0  0.00   0.0   0.076   0.000   72.9    56   56.3   72.9  10.29  .0734    0.000   203    7    100.0   10 
10/02/22  6:30a   54.0   54.1   54.0    99   53.7   7.0     S   1.17  12.0   SSE   52.0   54.4   52.4   50.0  29.934  0.00  0.00     0     0.00      0     0.0  0.00   0.0   0.076   0.000   72.9    56   56.3   72.9  10.29  .0734    0.000   203    7    100.0   10 
10/02/22  6:40a   54.1   54.1   54.0    99   53.8   7.0     S   1.17  13.0     S   52.1   54.5   52.5   50.1  29.938  0.00  0.00     0     0.00      0     0.0  0.00   0.0   0.076   0.000   72.9    56   56.3   72.9  10.29  .0734    0.000   202    7    100.0   10 
10/02/22  6:50a   54.1   54.2   54.0    99   53.8   7.0     S   1.17  12.0     S   52.1   54.5   52.5   50.1  29.940  0.00  0.00     0     0.00      0     0.0  0.00   0.0   0.076   0.000   72.9    56   56.3   72.9  10.29  .0734    0.000   204    7    100.0   10 
10/02/22  7:00a   54.2   54.2   54.1    99   53.9   6.0     S   1.00  11.0     S   52.6   54.6   53.0   50.6  29.940  0.00  0.00     0     0.00      0     0.0  0.00   0.0   0.075   0.000   72.9    56   56.3   72.9  10.29  .0734    0.000   204    7    100.0   10 
10/02/22  7:10a   54.1   54.2   54.1    99   53.8   6.0     S   1.00  12.0     S   52.5   54.5   52.9   50.5  29.942  0.00  0.00     0     0.00      0     0.0  0.00   0.0   0.076   0.000   72.9    56   56.3   72.9  10.29  .0734    0.000   204    7    100.0   10 
10/02/22  7:20a   54.1   54.2   54.0    99   53.8   5.0     S   0.83   9.0    SE   53.0   54.5   53.4   51.1  29.944  0.00  0.00     2     0.03      5     0.0  0.00   0.0   0.076   0.000   72.9    56   56.3   72.9  10.29  .0734    0.000   203    7    100.0   10 
10/02/22  7:30a   54.1   54.1   54.0    99   53.8   4.0     S   0.67   9.0   SSE   53.6   54.5   54.0   51.8  29.946  0.00  0.00     8     0.11     11     0.0  0.00   0.0   0.076   0.000   72.9    56   56.3   72.9  10.29  .0734    0.000   203    7    100.0   10 
10/02/22  7:40a   54.0   54.1   54.0    99   53.7   3.0     S   0.50   8.0    SE   54.0   54.4   54.4   52.4  29.950  0.00  0.00    16     0.23     21     0.0  0.00   0.0   0.076   0.000   72.9    56   56.3   72.9  10.29  .0735    0.000   205    7    100.0   10 
10/02/22  7:50a   54.0   54.1   54.0    98   53.4   1.0     S   0.17   4.0   SSE   54.0   54.3   54.3   52.5  29.953  0.00  0.00    24     0.34     28     0.0  0.00   0.0   0.076   0.000   72.8    56   56.2   72.8  10.29  .0735    0.000   199    7    100.0   10 
10/02/22  8:00a   54.2   54.2   54.0    99   53.9   1.0     S   0.17   2.0     S   54.2   54.6   54.6   53.0  29.955  0.00  0.00    32     0.46     37     0.0  0.00   0.0   0.075   0.000   72.8    56   56.2   72.8  10.29  .0735    0.000   204    7    100.0   10 
10/02/22  8:10a   54.2   54.2   54.1    99   53.9   0.0   ESE   0.00   2.0   ESE   54.2   54.6   54.6   54.5  29.964  0.00  0.00    37     0.53     40     0.0  0.00   0.0   0.075   0.000   72.8    56   56.2   72.8  10.29  .0735    0.000   203    7    100.0   10 
10/02/22  8:20a   54.2   54.3   54.1    99   53.9   1.0   ESE   0.17   3.0     S   54.2   54.6   54.6   54.9  29.967  0.00  0.00    46     0.66     54     0.0  0.00   0.0   0.075   0.000   72.9    56   56.3   72.9  10.29  .0735    0.000   203    7    100.0   10 
10/02/22  8:30a   54.1   54.3   54.1    98   53.5   2.0     S   0.33   6.0     S   54.1   54.4   54.4   55.0  29.972  0.00  0.00    53     0.76     54     0.0  0.00   0.0   0.076   0.000   72.8    56   56.2   72.8  10.29  .0735    0.000   204    7    100.0   10 
10/02/22  8:40a   54.3   54.3   54.1    99   54.0   2.0     S   0.33   7.0     S   54.3   54.7   54.7   55.7  29.971  0.00  0.00    65     0.93     70     0.0  0.00   0.0   0.074   0.000   72.9    56   56.3   72.9  10.29  .0735    0.000   204    7    100.0   10 
10/02/22  8:50a   54.4   54.4   54.3    99   54.1   2.0   SSE   0.33   5.0   SSE   54.4   54.8   54.8   56.2  29.974  0.00  0.00    75     1.08     90     0.0  0.00   0.0   0.074   0.000   72.9    56   56.3   72.9  10.29  .0735    0.000   203    7    100.0   10 
10/02/22  9:00a   54.6   54.6   54.4    99   54.3   2.0     S   0.33   5.0   SSE   54.6   55.0   55.0   56.8  29.972  0.00  0.00    88     1.26     97     0.0  0.00   0.0   0.072   0.000   72.9    56   56.3   72.9  10.29  .0735    0.001   204    7    100.0   10 
10/02/22  9:10a   54.5   54.6   54.4    98   53.9   5.0   SSW   0.83  11.0   SSE   53.5   54.8   53.8   56.1  29.973  0.00  0.00   105     1.51    111     0.3  0.02   0.5   0.073   0.000   72.8    56   56.2   72.8  10.29  .0735    0.000   204    7    100.0   10 
10/02/22  9:20a   54.5   54.5   54.4    98   53.9   4.0     S   0.67   8.0   SSE   54.1   54.8   54.4   56.8  29.978  0.00  0.00   113     1.62    114     0.5  0.04   0.5   0.073   0.000   72.9    56   56.3   72.9  10.29  .0735    0.000   202    7    100.0   10 
10/02/22  9:30a   54.6   54.7   54.5    98   54.0   5.0     S   0.83  10.0   SSE   53.6   54.9   53.9   56.3  29.983  0.00  0.00   114     1.63    128     0.5  0.04   0.6   0.072   0.000   72.9    56   56.3   72.9  10.29  .0735    0.000   202    7    100.0   10 
10/02/22  9:40a   54.8   54.8   54.5    98   54.2   6.0     S   1.00  11.0   SSE   53.4   55.1   53.7   56.7  29.985  0.00  0.00   137     1.96    155     0.7  0.05   0.8   0.071   0.000   72.9    56   56.3   72.9  10.29  .0735    0.000   203    7    100.0   10 
10/02/22  9:50a   55.1   55.1   54.8    98   54.5   4.0     S   0.67   7.0   SSE   54.7   55.4   55.0   57.0  29.987  0.00  0.00   109     1.56    125     0.6  0.04   0.6   0.069   0.000   72.9    56   56.3   72.9  10.29  .0735    0.000   203    7    100.0   10 
10/02/22 10:00a   55.3   55.3   55.1    98   54.7   4.0     S   0.67   7.0   SSE   55.0   55.6   55.3   57.6  29.988  0.00  0.00   123     1.76    132     0.6  0.04   0.7   0.067   0.000   72.9    56   56.3   72.9  10.29  .0735    0.002   203    7    100.0   10 
10/02/22 10:10a   55.5   55.5   55.3    98   54.9   5.0     S   0.83   9.0     S   54.7   55.8   55.0   57.8  29.989  0.00  0.00   144     2.06    153     0.8  0.06   0.8   0.066   0.000   73.0    56   56.4   73.1  10.29  .0735    0.000   204    7    100.0   10 
10/02/22 10:20a   55.4   55.5   55.4    98   54.8   5.0     S   0.83   8.0     S   54.6   55.7   54.9   58.2  29.990  0.00  0.00   163     2.34    193     0.8  0.06   0.9   0.067   0.000   73.0    56   56.4   73.1  10.29  .0735    0.000   205    7    100.0   10 
10/02/22 10:30a   55.6   55.6   55.3    98   55.0   7.0     S   1.17  12.0   SSE   53.9   55.9   54.2   58.6  29.993  0.00  0.00   211     3.02    239     1.0  0.07   1.1   0.065   0.000   73.0    56   56.4   73.1  10.29  .0735    0.000   204    7    100.0   10 
10/02/22 10:40a   55.7   55.7   55.5    98   55.1   8.0     S   1.33  11.0     S   53.3   56.0   53.6   57.2  29.995  0.00  0.00   188     2.70    195     1.1  0.08   1.1   0.065   0.000   73.1    56   56.5   73.2  10.29  .0735    0.000   201    7    100.0   10 
10/02/22 10:50a   55.6   55.7   55.6    98   55.0   9.0     S   1.50  14.0   SSE   52.5   55.9   52.8   57.0  29.995  0.00  0.00   225     3.23    267     1.3  0.09   1.4   0.065   0.000   73.1    56   56.5   73.2  10.29  .0735    0.000   202    7    100.0   10 
10/02/22 11:00a   55.8   55.8   55.6    98   55.2   8.0     S   1.33  12.0   SSE   53.5   56.1   53.8   58.8  29.995  0.00  0.00   258     3.70    297     1.5  0.11   1.7   0.064   0.000   73.1    56   56.5   73.2  10.29  .0735    0.004   203    7    100.0   10 
10/02/22 11:10a   55.7   55.9   55.6    98   55.1   8.0     S   1.33  11.0   SSE   53.3   56.0   53.6   59.0  29.997  0.00  0.00   279     4.00    301     1.6  0.11   1.7   0.065   0.000   73.2    56   56.6   73.3  10.29  .0735    0.000   204    7    100.0   10 
10/02/22 11:20a   56.0   56.0   55.7    98   55.4   8.0     S   1.33  12.0   SSE   53.7   56.3   54.0   59.9  29.999  0.00  0.00   306     4.39    373     1.8  0.13   2.1   0.063   0.000   73.2    56   56.6   73.3  10.29  .0735    0.000   204    7    100.0   10 
10/02/22 11:30a   56.4   56.4   56.0    97   55.6   7.0     S   1.17  12.0     S   54.9   56.7   55.2   61.8  30.000  0.00  0.00   331     4.74    396     2.2  0.16   2.3   0.060   0.000   73.2    56   56.6   73.3  10.29  .0735    0.000   203    7    100.0   10 
10/02/22 11:40a   56.1   56.4   56.1    97   55.3   8.0     S   1.33  12.0     S   53.8   56.4   54.1   59.9  30.003  0.00  0.00   309     4.43    352     2.1  0.15   2.3   0.062   0.000   73.3    55   56.2   73.4  10.08  .0735    0.000   204    7    100.0   10 
10/02/22 11:50a   56.1   56.2   56.1    97   55.3   9.0     S   1.50  13.0     S   53.1   56.4   53.4   59.3  30.003  0.00  0.00   331     4.74    371     2.2  0.16   2.4   0.062   0.000   73.3    55   56.2   73.4  10.08  .0735    0.000   204    7    100.0   10 
10/02/22 12:00p   56.1   56.1   56.0    98   55.5   9.0     S   1.50  13.0     S   53.1   56.4   53.4   59.2  30.006  0.00  0.00   325     4.66    338     2.2  0.16   2.3   0.062   0.000   73.3    55   56.2   73.4  10.08  .0735    0.006   204    7    100.0   10 
10/02/22 12:10p   56.1   56.1   56.0    98   55.5   9.0     S   1.50  13.0   SSE   53.1   56.4   53.4   59.0  30.007  0.00  0.00   320     4.59    332     2.2  0.16   2.2   0.062   0.000   73.3    55   56.2   73.4  10.08  .0735    0.000   203    7    100.0   10 
10/02/22 12:20p   56.1   56.2   56.0    97   55.3   9.0     S   1.50  14.0   SSE   53.1   56.4   53.4   58.6  30.010  0.00  0.00   300     4.30    313     2.1  0.15   2.1   0.062   0.000   73.3    55   56.2   73.4  10.08  .0736    0.000   204    7    100.0   10 
10/02/22 12:30p   56.1   56.2   56.1    97   55.3   9.0     S   1.50  12.0     S   53.1   56.4   53.4   58.6  30.011  0.00  0.00   303     4.34    308     2.1  0.15   2.1   0.062   0.000   73.3    55   56.2   73.4  10.08  .0736    0.000   203    7    100.0   10 
10/02/22 12:40p   56.3   56.3   56.1    97   55.5   8.0     S   1.33  12.0     S   54.1   56.6   54.4   59.5  30.014  0.00  0.00   291     4.17    311     2.0  0.14   2.1   0.060   0.000   73.3    55   56.2   73.4  10.08  .0736    0.000   204    7    100.0   10 
10/02/22 12:50p   56.2   56.4   56.2    97   55.4   9.0     S   1.50  13.0   SSE   53.2   56.5   53.5   58.5  30.014  0.00  0.00   297     4.26    318     2.0  0.14   2.2   0.061   0.000   73.3    55   56.2   73.4  10.08  .0736    0.000   202    7    100.0   10 
10/02/22  1:00p   56.1   56.3   56.1    97   55.3   8.0     S   1.33  12.0     S   53.8   56.4   54.1   59.0  30.016  0.00  0.00   285     4.09    308     2.0  0.14   2.1   0.062   0.000   73.4    55   56.2   73.5  10.08  .0735    0.006   204    7    100.0   10 
10/02/22  1:10p   56.2   56.2   56.1    97   55.4   8.0     S   1.33  12.0     S   53.9   56.5   54.2   60.0  30.017  0.00  0.00   329     4.72    348     2.3  0.16   2.4   0.061   0.000   73.4    55   56.2   73.5  10.08  .0736    0.000   202    7    100.0   10 
10/02/22  1:20p   56.4   56.4   56.0    97   55.6   8.0     S   1.33  13.0     S   54.2   56.7   54.5   60.5  30.018  0.00  0.00   337     4.83    350     2.3  0.16   2.4   0.060   0.000   73.4    56   56.7   73.6  10.28  .0735    0.000   203    7    100.0   10 
10/02/22  1:30p   56.5   56.5   56.4    97   55.7   8.0     S   1.33  12.0     S   54.3   56.8   54.6   60.7  30.020  0.00  0.00   344     4.93    357     2.3  0.16   2.4   0.059   0.000   73.5    55   56.3   73.6  10.08  .0735    0.000   203    7    100.0   10 
10/02/22  1:40p   56.5   56.6   56.4    97   55.7   8.0     S   1.33  11.0     S   54.3   56.8   54.6   60.1  30.020  0.00  0.00   314     4.50    320     2.2  0.16   2.3   0.059   0.000   73.5    56   56.8   73.7  10.28  .0735    0.000   203    7    100.0   10 
10/02/22  1:50p   56.4   56.5   56.4    97   55.6   7.0     S   1.17  12.0     S   54.9   56.7   55.2   60.8  30.024  0.00  0.00   305     4.37    330     2.1  0.15   2.2   0.060   0.000   73.5    56   56.8   73.7  10.28  .0735    0.000   203    7    100.0   10 
10/02/22  2:00p   56.4   56.5   56.4    97   55.6   7.0     S   1.17  12.0   SSE   54.9   56.7   55.2   60.5  30.021  0.00  0.00   292     4.19    313     2.0  0.14   2.1   0.060   0.000   73.6    56   56.9   73.8  10.28  .0735    0.006   202    7    100.0   10 
10/02/22  2:10p   56.4   56.4   56.4    97   55.6   8.0     S   1.33  11.0     S   54.2   56.7   54.5   59.2  30.022  0.00  0.00   273     3.91    288     1.9  0.14   2.0   0.060   0.000   73.6    56   56.9   73.8  10.28  .0735    0.000   204    7    100.0   10 
10/02/22  2:20p   56.4   56.4   56.3    97   55.6   8.0     S   1.33  12.0   SSE   54.2   56.7   54.5   59.3  30.022  0.00  0.00   274     3.93    281     1.9  0.14   1.9   0.060   0.000   73.5    56   56.8   73.7  10.28  .0735    0.000   203    7    100.0   10 
10/02/22  2:30p   56.5   56.6   56.4    97   55.7   7.0     S   1.17  11.0     S   55.0   56.8   55.3   60.2  30.021  0.00  0.00   270     3.87    281     1.8  0.13   1.8   0.059   0.000   73.6    56   56.9   73.8  10.28  .0735    0.000   202    7    100.0   10 
10/02/22  2:40p   56.4   56.6   56.4    97   55.6   7.0     S   1.17  11.0     S   54.9   56.7   55.2   59.8  30.021  0.00  0.00   251     3.60    272     1.6  0.11   1.8   0.060   0.000   73.6    56   56.9   73.8  10.28  .0735    0.000   203    7    100.0   10 
10/02/22  2:50p   56.5   56.6   56.4    97   55.7   7.0     S   1.17  11.0     S   55.0   56.8   55.3   60.2  30.022  0.00  0.00   262     3.76    272     1.7  0.12   1.7   0.059   0.000   73.6    55   56.4   73.7  10.08  .0735    0.000   204    7    100.0   10 
10/02/22  3:00p   56.7   56.7   56.5    97   55.9   7.0     S   1.17  12.0     S   55.2   57.0   55.5   60.3  30.017  0.00  0.00   255     3.66    260     1.6  0.11   1.6   0.058   0.000   73.3    56   56.7   73.4  10.28  .0735    0.005   202    7    100.0   10 
10/02/22  3:10p   56.5   56.8   56.5    97   55.7   7.0     S   1.17  10.0     S   55.0   56.8   55.3   60.1  30.017  0.00  0.00   254     3.64    258     1.5  0.11   1.6   0.059   0.000   73.4    56   56.7   73.6  10.28  .0735    0.000   203    7    100.0   10 
10/02/22  3:20p   56.6   56.7   56.5    97   55.8   7.0     S   1.17  11.0     S   55.1   56.9   55.4   60.3  30.016  0.00  0.00   254     3.64    274     1.5  0.11   1.6   0.058   0.000   73.5    56   56.8   73.7  10.28  .0735    0.000   204    7    100.0   10 
10/02/22  3:30p   56.4   56.6   56.4    97   55.6   7.0     S   1.17  10.0   SSE   54.9   56.7   55.2   59.4  30.018  0.00  0.00   219     3.14    227     1.3  0.09   1.3   0.060   0.000   73.5    56   56.8   73.7  10.28  .0735    0.000   204    7    100.0   10 
10/02/22  3:40p   56.3   56.5   56.3    97   55.5   8.0     S   1.33  11.0     S   54.1   56.6   54.4   58.6  30.017  0.00  0.00   220     3.15    232     1.2  0.09   1.3   0.060   0.000   73.6    56   56.9   73.8  10.28  .0735    0.000   202    7    100.0   10 
10/02/22  3:50p   56.3   56.4   56.2    97   55.5   8.0     S   1.33  13.0     S   54.1   56.6   54.4   58.4  30.019  0.00  0.00   209     3.00    232     1.1  0.08   1.3   0.060   0.000   73.6    56   56.9   73.8  10.28  .0735    0.000   202    7    100.0   10 
10/02/22  4:00p   56.5   56.6   56.3    97   55.7   8.0     S   1.33  12.0   SSE   54.3   56.8   54.6   57.7  30.022  0.00  0.00   169     2.42    188     0.9  0.06   1.0   0.059   0.000   73.4    55   56.2   73.5  10.08  .0736    0.004   205    7    100.0   10 
10/02/22  4:10p   56.5   56.6   56.4    97   55.7   8.0     S   1.33  12.0     S   54.3   56.8   54.6   57.3  30.021  0.00  0.00   153     2.19    172     0.8  0.06   0.9   0.059   0.000   73.0    56   56.4   73.1  10.29  .0736    0.000   202    7    100.0   10 
10/02/22  4:20p   56.4   56.4   56.4    98   55.8   8.0     S   1.33  12.0   SSE   54.2   56.7   54.5   56.7  30.022  0.00  0.00   129     1.85    141     0.6  0.04   0.7   0.060   0.000   72.8    56   56.2   72.8  10.29  .0737    0.000   202    7    100.0   10 
10/02/22  4:30p   56.4   56.4   56.3    97   55.6   8.0     S   1.33  14.0   SSE   54.2   56.7   54.5   56.3  30.022  0.00  0.00   114     1.63    118     0.5  0.04   0.6   0.060   0.000   72.7    56   56.1   72.6  10.30  .0737    0.000   204    7    100.0   10 
10/02/22  4:40p   56.4   56.4   56.3    98   55.8   8.0     S   1.33  13.0   SSE   54.2   56.7   54.5   56.4  30.022  0.00  0.00   112     1.61    118     0.5  0.04   0.5   0.060   0.000   72.7    57   56.6   72.7  10.44  .0736    0.000   202    7    100.0   10 
10/02/22  4:50p   56.4   56.5   56.3    97   55.6   8.0     S   1.33  12.0   SSE   54.2   56.7   54.5   55.9  30.024  0.00  0.00    94     1.35    104     0.1  0.01   0.5   0.060   0.000   72.9    57   56.8   73.0  10.43  .0736    0.000   201    7    100.0   10 
10/02/22  5:00p   56.3   56.4   56.3    97   55.5   7.0     S   1.17  12.0     S   54.8   56.6   55.1   56.1  30.026  0.00  0.00    79     1.13     83     0.0  0.00   0.0   0.060   0.000   73.0    57   56.9   73.2  10.43  .0736    0.002   204    7    100.0   10 
10/02/22  5:10p   56.3   56.4   56.2    97   55.5   7.0     S   1.17  11.0   SSE   54.8   56.6   55.1   55.9  30.028  0.00  0.00    72     1.03     74     0.0  0.00   0.0   0.060   0.000   73.1    57   57.0   73.3  10.43  .0736    0.000   202    7    100.0   10 
10/02/22  5:20p   56.3   56.4   56.2    97   55.5   7.0     S   1.17  12.0     S   54.8   56.6   55.1   55.7  30.030  0.00  0.00    64     0.92     69     0.0  0.00   0.0   0.060   0.000   73.1    56   56.5   73.2  10.29  .0736    0.000   205    7    100.0   10 
10/02/22  5:30p   56.3   56.3   56.2    97   55.5   6.0     S   1.00  11.0     S   55.2   56.6   55.5   55.9  30.030  0.00  0.00    56     0.80     60     0.0  0.00   0.0   0.060   0.000   73.1    56   56.5   73.2  10.29  .0736    0.000   203    7    100.0   10 
10/02/22  5:40p   56.2   56.3   56.2    97   55.4   8.0     S   1.33  12.0   SSE   53.9   56.5   54.2   54.4  30.030  0.00  0.00    50     0.72     54     0.0  0.00   0.0   0.061   0.000   73.1    57   57.0   73.3  10.43  .0736    0.000   202    7    100.0   10 
10/02/22  5:50p   56.1   56.2   56.0    97   55.3   8.0     S   1.33  11.0     S   53.8   56.4   54.1   53.9  30.029  0.00  0.00    39     0.56     42     0.0  0.00   0.0   0.062   0.000   73.2    57   57.1   73.4  10.42  .0736    0.000   202    7    100.0   10 
10/02/22  6:00p   56.3   56.3   56.1    97   55.5   8.0     S   1.33  12.0   SSE   54.1   56.6   54.4   54.2  30.028  0.00  0.00    36     0.52     39     0.0  0.00   0.0   0.060   0.000   73.2    57   57.1   73.4  10.42  .0736    0.001   205    7    100.0   10 
10/02/22  6:10p   56.7   56.7   56.3    97   55.9   7.0     S   1.17  14.0   SSE   55.2   57.0   55.5   54.7  30.030  0.00  0.00    23     0.33     30     0.0  0.00   0.0   0.058   0.000   73.2    57   57.1   73.4  10.42  .0736    0.000   203    7    100.0   10 
10/02/22  6:20p   56.8   56.8   56.7    97   56.0   6.0     S   1.00  10.0     S   55.8   57.1   56.1   54.9  30.030  0.00  0.00    14     0.20     16     0.0  0.00   0.0   0.057   0.000   73.2    57   57.1   73.4  10.42  .0736    0.000   204    7    100.0   10 
10/02/22  6:30p   56.9   56.9   56.8    96   55.8   6.0     S   1.00  10.0     S   55.9   57.1   56.1   54.6  30.032  0.00  0.00     9     0.13     11     0.0  0.00   0.0   0.056   0.000   73.2    57   57.1   73.4  10.42  .0736    0.000   205    7    100.0   10 
10/02/22  6:40p   57.0   57.0   56.9    96   55.9   7.0     S   1.17  12.0     S   55.6   57.2   55.8   53.7  30.032  0.00  0.00     5     0.07      7     0.0  0.00   0.0   0.056   0.000   73.2    57   57.1   73.4  10.42  .0736    0.000   202    7    100.0   10 
10/02/22  6:50p   57.0   57.0   56.9    96   55.9   6.0     S   1.00  10.0   SSE   56.0   57.2   56.2   54.0  30.032  0.00  0.00     0     0.00      0     0.0  0.00   0.0   0.056   0.000   73.2    57   57.1   73.4  10.42  .0736    0.000   203    7    100.0   10 
10/02/22  7:00p   57.0   57.0   57.0    96   55.9   6.0     S   1.00  10.0   SSW   56.0   57.2   56.2   54.0  30.032  0.00  0.00     0     0.00      0     0.0  0.00   0.0   0.056   0.000   73.2    57   57.1   73.4  10.42  .0736    0.000   200    7    100.0   10 
10/02/22  7:10p   57.1   57.1   57.0    95   55.7   5.0     S   0.83  10.0   SSE   56.5   57.3   56.7   54.5  30.036  0.00  0.00     0     0.00      0     0.0  0.00   0.0   0.055   0.000   73.2    57   57.1   73.4  10.42  .0736    0.000   204    7    100.0   10 
10/02/22  7:20p   57.1   57.1   57.0    95   55.7   5.0     S   0.83  10.0     S   56.5   57.3   56.7   54.5  30.038  0.00  0.00     0     0.00      0     0.0  0.00   0.0   0.055   0.000   73.2    57   57.1   73.4  10.42  .0736    0.000   202    7    100.0   10 
10/02/22  7:30p   57.1   57.1   57.0    95   55.7   5.0     S   0.83   9.0   SSE   56.5   57.3   56.7   54.5  30.036  0.00  0.00     0     0.00      0     0.0  0.00   0.0   0.055   0.000   73.2    57   57.1   73.4  10.42  .0736    0.000   203    7    100.0   10 
10/02/22  7:40p   57.0   57.1   57.0    95   55.6   5.0     S   0.83  11.0     S   56.4   57.2   56.6   54.4  30.040  0.00  0.00     0     0.00      0     0.0  0.00   0.0   0.056   0.000   73.1    56   56.5   73.2  10.29  .0736    0.000   204    7    100.0   10 
10/02/22  7:50p   57.0   57.1   57.0    95   55.6   5.0     S   0.83   8.0   SSE   56.4   57.2   56.6   54.4  30.043  0.00  0.00     0     0.00      0     0.0  0.00   0.0   0.056   0.000   72.8    56   56.2   72.8  10.29  .0737    0.000   203    7    100.0   10 
10/02/22  8:00p   57.1   57.1   57.0    95   55.7   4.0     S   0.67   9.0     S   57.1   57.3   57.3   55.1  30.045  0.00  0.00     0     0.00      0     0.0  0.00   0.0   0.055   0.000   72.6    57   56.5   72.6  10.45  .0737    0.000   203    7    100.0   10 
10/02/22  8:10p   57.1   57.1   57.0    95   55.7   4.0     S   0.67   7.0     S   57.1   57.3   57.3   55.1  30.048  0.00  0.00     0     0.00      0     0.0  0.00   0.0   0.055   0.000   72.5    57   56.4   72.4  10.45  .0737    0.000   203    7    100.0   10 
10/02/22  8:20p   57.1   57.2   57.1    95   55.7   4.0     S   0.67   8.0   SSE   57.1   57.3   57.3   55.1  30.049  0.00  0.00     0     0.00      0     0.0  0.00   0.0   0.055   0.000   72.4    57   56.3   72.3  10.45  .0738    0.000   204    7    100.0   10 
10/02/22  8:30p   57.1   57.1   57.1    95   55.7   3.0     S   0.50   8.0     S   57.1   57.3   57.3   55.1  30.049  0.00  0.00     0     0.00      0     0.0  0.00   0.0   0.055   0.000   72.3    57   56.2   72.1  10.46  .0738    0.000   204    7    100.0   10 
10/02/22  8:40p   57.1   57.2   57.0    95   55.7   3.0     S   0.50   6.0   SSE   57.1   57.3   57.3   55.1  30.049  0.00  0.00     0     0.00      0     0.0  0.00   0.0   0.055   0.000   72.2    57   56.1   72.0  10.46  .0738    0.000   203    7    100.0   10 
10/02/22  8:50p   57.1   57.1   57.1    95   55.7   1.0   SSE   0.17   4.0   SSE   57.1   57.3   57.3   55.1  30.050  0.00  0.00     0     0.00      0     0.0  0.00   0.0   0.055   0.000   72.2    57   56.1   72.0  10.46  .0738    0.000   202    7    100.0   10 
10/02/22  9:00p   57.1   57.2   57.1    95   55.7   1.0   SSE   0.17   4.0   SSE   57.1   57.3   57.3   55.1  30.051  0.00  0.00     0     0.00      0     0.0  0.00   0.0   0.055   0.000   72.1    57   56.0   71.8  10.47  .0738    0.000   203    7    100.0   10 
10/02/22  9:10p   57.1   57.2   57.1    95   55.7   1.0    SE   0.17   4.0   SSE   57.1   57.3   57.3   55.1  30.050  0.00  0.00     0     0.00      0     0.0  0.00   0.0   0.055   0.000   72.1    57   56.0   71.8  10.47  .0738    0.000   204    7    100.0   10 
10/02/22  9:20p   57.1   57.2   57.1    95   55.7   1.0   ESE   0.17   2.0    SE   57.1   57.3   57.3   55.1  30.048  0.00  0.00     0     0.00      0     0.0  0.00   0.0   0.055   0.000   72.0    57   55.9   71.7  10.47  .0738    0.000   203    7    100.0   10 
10/02/22  9:30p   57.1   57.1   57.0    95   55.7   1.0    SE   0.17   5.0   SSE   57.1   57.3   57.3   55.1  30.049  0.00  0.00     0     0.00      0     0.0  0.00   0.0   0.055   0.000   72.0    57   55.9   71.7  10.47  .0738    0.000   203    7    100.0   10 
10/02/22  9:40p   57.0   57.1   56.9    95   55.6   1.0     E   0.17   4.0     E   57.0   57.2   57.2   55.0  30.050  0.00  0.00     0     0.00      0     0.0  0.00   0.0   0.056   0.000   71.9    57   55.8   71.5  10.47  .0739    0.000   201    7    100.0   10 
10/02/22  9:50p   56.9   57.0   56.9    95   55.5   1.0     E   0.17   3.0    SE   56.9   57.1   57.1   54.9  30.053  0.00  0.00     0     0.00      0     0.0  0.00   0.0   0.056   0.000   71.8    58   56.2   71.5  10.68  .0739    0.000   203    7    100.0   10 
10/02/22 10:00p   56.9   56.9   56.8    95   55.5   1.0     E   0.17   3.0     E   56.9   57.1   57.1   54.9  30.056  0.00  0.00     0     0.00      0     0.0  0.00   0.0   0.056   0.000   71.8    58   56.2   71.5  10.68  .0739    0.000   203    7    100.0   10 
10/02/22 10:10p   56.8   56.9   56.8    95   55.4   0.0     E   0.00   3.0    SE   56.8   57.0   57.0   54.8  30.057  0.00  0.00     0     0.00      0     0.0  0.00   0.0   0.057   0.000   71.8    58   56.2   71.5  10.68  .0739    0.000   201    7    100.0   10 
10/02/22 10:20p   56.9   56.9   56.8    95   55.5   1.0   ESE   0.17   3.0    SE   56.9   57.1   57.1   54.9  30.058  0.00  0.00     0     0.00      0     0.0  0.00   0.0   0.056   0.000   71.7    58   56.1   71.3  10.68  .0739    0.000   204    7    100.0   10 
10/02/22 10:30p   56.9   56.9   56.8    95   55.5   0.0     E   0.00   2.0   ESE   56.9   57.1   57.1   54.9  30.060  0.00  0.00     0     0.00      0     0.0  0.00   0.0   0.056   0.000   71.7    58   56.1   71.3  10.68  .0739    0.000   204    7    100.0   10 
10/02/22 10:40p   57.0   57.0   56.9    95   55.6   1.0     S   0.17   3.0   SSE   57.0   57.2   57.2   55.0  30.061  0.00  0.00     0     0.00      0     0.0  0.00   0.0   0.056   0.000   71.7    57   55.7   71.2  10.48  .0739    0.000   204    7    100.0   10 
10/02/22 10:50p   57.0   57.0   56.9    95   55.6   0.0   SSE   0.00   2.0   SSE   57.0   57.2   57.2   55.0  30.064  0.00  0.00     0     0.00      0     0.0  0.00   0.0   0.056   0.000   71.6    58   56.0   71.2  10.69  .0739    0.000   202    7    100.0   10 
10/02/22 11:00p   57.1   57.1   57.0    95   55.7   2.0   SSE   0.33   5.0   SSE   57.1   57.3   57.3   55.1  30.061  0.00  0.00     0     0.00      0     0.0  0.00   0.0   0.055   0.000   71.6    58   56.0   71.2  10.69  .0739    0.000   204    7    100.0   10 
10/02/22 11:10p   57.1   57.1   57.0    94   55.4   2.0     S   0.33   5.0   SSE   57.1   57.3   57.3   55.1  30.062  0.00  0.00     0     0.00      0     0.0  0.00   0.0   0.055   0.000   71.6    58   56.0   71.2  10.69  .0739    0.000   201    7    100.0   10 
10/02/22 11:20p   57.2   57.2   57.1    94   55.5   2.0     S   0.33   4.0     S   57.2   57.4   57.4   55.2  30.064  0.00  0.00     0     0.00      0     0.0  0.00   0.0   0.054   0.000   71.5    58   55.9   71.0  10.69  .0739    0.000   202    7    100.0   10 
10/02/22 11:30p   57.2   57.2   57.1    94   55.5   1.0     S   0.17   4.0   SSE   57.2   57.4   57.4   55.2  30.062  0.00  0.00     0     0.00      0     0.0  0.00   0.0   0.054   0.000   71.5    58   55.9   71.0  10.69  .0739    0.000   202    7    100.0   10 
10/02/22 11:40p   57.1   57.2   57.1    94   55.4   2.0     S   0.33   4.0   SSE   57.1   57.3   57.3   55.1  30.062  0.00  0.00     0     0.00      0     0.0  0.00   0.0   0.055   0.000   71.5    58   55.9   71.0  10.69  .0739    0.000   204    7    100.0   10 
10/02/22 11:50p   57.1   57.2   57.1    94   55.4   1.0     S   0.17   4.0   SSE   57.1   57.3   57.3   55.1  30.065  0.00  0.00     0     0.00      0     0.0  0.00   0.0   0.055   0.000   71.5    58   55.9   71.0  10.69  .0739    0.000   204    7    100.0   10 
10/03/22 12:00a   57.1   57.2   57.1    94   55.4   1.0     S   0.17   3.0     S   57.1   57.3   57.3   55.1  30.064  0.00  0.00     0     0.00      0     0.0  0.00   0.0   0.055   0.000   71.5    58   55.9   71.0  10.69  .0739    0.000   203    7    100.0   10 
10/03/22 12:10a   57.1   57.1   57.0    94   55.4   1.0     S   0.17   4.0   SSE   57.1   57.3   57.3   55.1  30.064  0.00  0.00     0     0.00      0     0.0  0.00   0.0   0.055   0.000   71.4    58   55.9   70.9  10.69  .0740    0.000   204    7    100.0   10 
10/03/22 12:20a   57.1   57.1   57.1    94   55.4   2.0     S   0.33   5.0   SSE   57.1   57.3   57.3   55.1  30.063  0.00  0.00     0     0.00      0     0.0  0.00   0.0   0.055   0.000   71.4    58   55.9   70.9  10.69  .0740    0.000   202    7    100.0   10 
10/03/22 12:30a   57.1   57.1   57.0    94   55.4   1.0     S   0.17   5.0   SSE   57.1   57.3   57.3   55.1  30.064  0.00  0.00     0     0.00      0     0.0  0.00   0.0   0.055   0.000   71.4    58   55.9   70.9  10.69  .0740    0.000   204    7    100.0   10 
10/03/22 12:40a   57.1   57.1   57.0    94   55.4   1.0   SSE   0.17   3.0   SSE   57.1   57.3   57.3   55.1  30.069  0.00  0.00     0     0.00      0     0.0  0.00   0.0   0.055   0.000   71.3    58   55.8   70.7  10.70  .0740    0.000   204    7    100.0   10 
10/03/22 12:50a   57.0   57.1   57.0    94   55.3   1.0   SSE   0.17   3.0   SSE   57.0   57.2   57.2   55.0  30.070  0.00  0.00     0     0.00      0     0.0  0.00   0.0   0.056   0.000   71.3    58   55.8   70.7  10.70  .0740    0.000   204    7    100.0   10 
10/03/22  1:00a   57.1   57.1   57.0    94   55.4   1.0   SSE   0.17   4.0     S   57.1   57.3   57.3   55.1  30.072  0.00  0.00     0     0.00      0     0.0  0.00   0.0   0.055   0.000   71.3    58   55.8   70.7  10.70  .0740    0.000   202    7    100.0   10 
10/03/22  1:10a   57.1   57.1   57.0    94   55.4   1.0     S   0.17   4.0     S   57.1   57.3   57.3   55.1  30.071  0.00  0.00     0     0.00      0     0.0  0.00   0.0   0.055   0.000   71.3    58   55.8   70.7  10.70  .0740    0.000   200    7    100.0   10 
10/03/22  1:20a   57.0   57.1   57.0    94   55.3   1.0   SSW   0.17   3.0   SSW   57.0   57.2   57.2   55.0  30.070  0.00  0.00     0     0.00      0     0.0  0.00   0.0   0.056   0.000   71.3    58   55.8   70.7  10.70  .0740    0.000   201    7    100.0   10 
10/03/22  1:30a   56.9   57.0   56.9    94   55.2   0.0   SSW   0.00   1.0   SSW   56.9   57.1   57.1   54.9  30.068  0.00  0.00     0     0.00      0     0.0  0.00   0.0   0.056   0.000   71.2    58   55.7   70.6  10.70  .0740    0.000   204    7    100.0   10 
10/03/22  1:40a   56.9   57.0   56.9    94   55.2   0.0   SSE   0.00   2.0   SSE   56.9   57.1   57.1   54.9  30.069  0.00  0.00     0     0.00      0     0.0  0.00   0.0   0.056   0.000   71.2    58   55.7   70.6  10.70  .0740    0.000   199    7    100.0   10 
Email: AdamSPAM@StormwatchersRetreat.com (To send me email remove the word 'SPAM' from my email address.)